Latest Weather Observations for Kingfish B

IDV60801

Issued at 2:05 pm EST Thursday 24 July 2014 (issued every 30 minutes, with the page automatically refreshed every 10 minutes)

About weather observations | Map of weather stations | Latest weather observations for VIC | Other Formats
Station Details ID: 400139 Name: KINGFISH B (PLATFORM) Lat: -38.60 Lon: 148.19 Height: 31.4 m
Data from the previous 72 hours. | See also: Recent months for locations in Victoria
Date/Time
EST
Temp
°C
App
Temp
°C
Dew
Point
Rel
Hum
%
Delta-T
°C
Wind Press
QNH
hPa
Press
MSL
hPa
Rain
since 9 am
mm
Dir
 
Spd
km/h
Gust
km/h
Spd
kts
Gust
kts
24/01:00pm 14.6 12.2 8.5 67 3.1 NE 11 13 6 7 1015.4 - -
24/12:40pm 14.8 12.4 8.6 66 3.1 NE 11 13 6 7 1015.6 - -
24/12:30pm 14.6 12.1 8.3 66 3.2 NE 11 13 6 7 1015.8 - -
24/12:20pm 14.6 11.7 8.3 66 3.2 NNE 13 15 7 8 1015.9 - -
24/12:10pm 14.7 12.3 8.6 67 3.1 NNE 11 13 6 7 1016.0 - -
24/12:00pm 14.9 12.1 8.7 66 3.1 NNE 13 15 7 8 1016.2 - -
24/11:50am 14.5 11.7 8.4 67 3.1 NNE 13 15 7 8 1016.5 - -
24/11:40am 14.2 11.2 7.7 65 3.2 N 13 15 7 8 1016.7 - -
24/11:30am 14.3 11.3 7.6 64 3.3 N 13 15 7 8 1016.8 - -
24/11:20am 14.4 11.4 7.6 63 3.4 N 13 15 7 8 1017.0 - -
24/11:10am 14.5 11.5 7.6 63 3.4 N 13 15 7 8 1017.1 - -
24/11:00am 14.9 11.9 7.9 63 3.5 N 13 15 7 8 1017.2 - -
24/10:50am 15.9 13.1 8.6 62 3.7 NNE 13 15 7 8 1017.2 - -
24/10:40am 16.1 13.9 9.5 65 3.4 NNE 11 15 6 8 1017.3 - -
24/10:30am 14.3 11.8 8.2 67 3.1 NNE 11 13 6 7 1017.5 - -
24/10:20am 14.3 11.8 8.3 67 3.0 NNE 11 13 6 7 1017.6 - -
24/10:10am 14.1 11.6 8.0 66 3.0 NNE 11 13 6 7 1017.7 - -
24/10:00am 14.2 12.0 7.9 66 3.1 NNE 9 11 5 6 1017.8 - -
24/09:50am 14.4 12.6 7.9 65 3.2 NNE 7 11 4 6 1017.9 - -
24/09:40am 14.5 12.7 7.8 64 3.3 N 7 11 4 6 1018.2 - -
24/09:30am 14.5 12.7 8.1 65 3.2 N 7 11 4 6 1018.3 - -
24/09:20am 14.5 12.8 8.2 66 3.2 N 7 9 4 5 1018.4 - -
24/09:10am 14.4 12.6 8.0 65 3.2 N 7 11 4 6 1018.5 - -
24/09:00am 14.8 13.1 8.3 65 3.3 N 7 11 4 6 1018.5 - -
24/08:50am 14.8 13.1 8.4 65 3.2 NNW 7 11 4 6 1018.4 - -
24/08:40am 14.7 12.6 8.3 65 3.2 NNW 9 13 5 7 1018.6 - -
24/08:30am 14.7 11.9 8.4 66 3.2 NW 13 15 7 8 1018.7 - -
24/08:20am 14.6 11.8 8.4 66 3.1 NW 13 17 7 9 1018.6 - -
24/08:10am 14.3 11.0 8.0 66 3.1 NW 15 19 8 10 1018.5 - -
24/08:00am 14.0 11.0 7.5 65 3.2 NNW 13 17 7 9 1018.4 - -
24/07:50am 14.1 11.5 7.6 65 3.2 N 11 13 6 7 1018.3 - -
24/07:40am 14.2 11.2 7.9 66 3.1 N 13 17 7 9 1018.2 - -
24/07:30am 14.4 11.3 9.0 70 2.7 NNE 15 17 8 9 1018.0 - -
24/07:20am 14.4 11.6 9.9 74 2.3 NNE 15 19 8 10 1017.9 - -
24/07:10am 14.3 11.2 10.3 77 2.1 NNE 17 19 9 10 1017.9 - -
24/07:00am 14.0 11.3 10.3 78 1.9 NNE 15 17 8 9 1017.9 - -
24/06:50am 13.8 11.1 10.4 80 1.8 NNE 15 19 8 10 1017.9 - -
24/06:40am 13.8 10.8 10.5 80 1.7 NNE 17 20 9 11 1017.9 - -
24/06:30am 13.7 10.6 10.4 80 1.7 NNE 17 20 9 11 1017.8 - -
24/06:20am 13.9 10.8 10.4 79 1.8 NNE 17 20 9 11 1017.8 - -
24/06:10am 13.9 10.4 10.3 79 1.9 NNE 19 22 10 12 1017.7 - -
24/05:50am 13.9 10.1 9.8 76 2.1 NE 20 24 11 13 1017.4 - -
24/05:40am 14.1 9.9 9.9 76 2.2 NE 22 26 12 14 1017.3 - -
24/05:30am 13.7 9.4 9.3 75 2.2 NE 22 24 12 13 1017.3 - -
24/05:20am 13.7 9.8 9.4 75 2.2 NE 20 24 11 13 1017.4 - -
24/05:10am 13.9 10.2 9.6 75 2.2 NE 19 22 10 12 1017.4 - -
24/05:00am 13.9 10.2 9.6 75 2.2 NE 19 20 10 11 1017.5 - -
24/04:50am 13.9 10.6 9.7 76 2.2 NE 17 20 9 11 1017.5 - -
24/04:40am 13.8 10.2 9.7 76 2.1 NE 19 20 10 11 1017.5 - -
24/04:30am 13.8 10.2 9.7 76 2.1 NE 19 22 10 12 1017.4 - -
24/04:20am 13.9 10.3 9.7 76 2.2 NE 19 22 10 12 1017.5 - -
24/04:10am 14.0 10.2 9.8 76 2.2 NE 20 24 11 13 1017.5 - -
24/04:00am 14.0 10.2 9.7 75 2.2 NE 20 22 11 12 1017.6 - -
24/03:50am 14.1 10.3 9.7 75 2.3 NE 20 24 11 13 1017.7 - -
24/03:40am 14.3 10.7 9.7 74 2.4 NE 19 22 10 12 1017.8 - -
24/03:30am 14.3 10.6 9.5 73 2.5 NE 19 22 10 12 1017.9 - -
24/03:20am 14.3 10.4 9.3 72 2.6 NNE 20 22 11 12 1018.0 - -
24/03:10am 14.4 10.6 9.2 71 2.7 NNE 19 22 10 12 1018.0 - -
24/03:00am 14.4 10.0 8.9 69 2.8 NNE 22 24 12 13 1018.0 - -
24/02:50am 14.5 9.7 8.8 68 2.9 NNE 24 26 13 14 1018.0 - -
24/02:40am 14.5 10.0 8.5 67 3.0 NE 22 26 12 14 1018.0 - -
24/02:30am 14.4 9.6 8.7 68 2.9 NE 24 28 13 15 1017.9 - -
24/02:20am 14.4 8.7 8.5 67 3.0 NE 28 30 15 16 1017.9 - -
24/02:10am 14.3 8.6 8.5 68 2.9 NE 28 32 15 17 1017.8 - -
24/02:00am 14.3 8.6 8.4 67 3.0 NE 28 32 15 17 1017.8 - -
24/01:50am 14.2 8.1 8.4 68 2.9 NE 30 33 16 18 1017.8 - -
24/01:40am 14.2 8.1 8.3 67 3.0 NE 30 33 16 18 1017.8 - -
24/01:30am 14.2 8.2 8.5 68 2.9 NE 30 33 16 18 1018.0 - -
24/01:20am 14.2 8.1 8.2 67 3.0 NE 30 33 16 18 1018.0 - -
24/01:10am 14.2 7.7 8.1 66 3.0 NE 32 35 17 19 1018.1 - -
24/01:00am 14.2 7.5 8.1 66 3.0 NE 33 37 18 20 1018.1 - -
24/12:50am 14.2 7.5 8.2 67 3.0 NE 33 37 18 20 1018.2 - -
24/12:40am 14.1 7.4 8.2 67 2.9 NE 33 35 18 19 1018.2 - -
24/12:30am 14.1 7.7 8.4 68 2.9 NE 32 37 17 20 1018.2 - -
24/12:10am 14.1 7.7 8.7 70 2.7 NE 32 37 17 20 1018.4 - -
24/12:00am 14.1 7.5 8.7 70 2.7 NE 33 35 18 19 1018.5 - -
 
Date/Time
EST
Temp
°C
App
Temp
°C
Dew
Point
Rel
Hum
%
Delta-T
°C
Wind Press
QNH
hPa
Press
MSL
hPa
Rain
since 9 am
mm
Dir
 
Spd
km/h
Gust
km/h
Spd
kts
Gust
kts
23/11:50pm 14.1 8.1 8.8 70 2.7 NE 30 35 16 19 1018.6 - -
23/11:40pm 14.1 8.2 9.0 71 2.6 NE 30 35 16 19 1018.8 - -
23/11:30pm 14.1 7.9 9.5 74 2.4 NE 32 35 17 19 1018.9 - -
23/11:20pm 14.2 9.2 9.5 73 2.4 NE 26 32 14 17 1019.1 - -
23/11:10pm 14.2 9.1 9.2 72 2.6 NE 26 30 14 16 1019.2 - -
23/11:00pm 14.2 9.1 9.2 72 2.6 NE 26 30 14 16 1019.4 - -
23/10:50pm 14.1 9.0 9.1 72 2.5 NE 26 30 14 16 1019.5 - -
23/10:40pm 14.2 9.1 9.3 72 2.5 NE 26 30 14 16 1019.7 - -
23/10:30pm 14.2 9.5 9.4 73 2.5 NE 24 28 13 15 1019.9 - -
23/10:20pm 14.1 9.4 9.3 73 2.5 NE 24 28 13 15 1020.0 - -
23/10:10pm 14.5 9.7 9.0 69 2.8 NE 24 28 13 15 1020.1 - -
23/10:00pm 15.9 11.4 10.2 69 3.0 NE 24 28 13 15 1020.3 - -
23/09:50pm 14.2 9.5 9.2 72 2.6 NE 24 28 13 15 1020.4 - -
23/09:40pm 14.1 9.7 9.0 71 2.6 NE 22 26 12 14 1020.6 - -
23/09:30pm 14.2 9.4 9.0 71 2.6 NE 24 26 13 14 1020.6 - -
23/09:20pm 14.1 9.6 8.7 70 2.7 NE 22 28 12 15 1020.7 - -
23/09:10pm 14.4 10.0 9.1 70 2.7 NE 22 26 12 14 1020.8 - -
23/09:00pm 14.4 10.0 8.9 69 2.8 NE 22 26 12 14 1020.9 - -
23/08:50pm 14.0 9.6 8.8 71 2.6 NE 22 26 12 14 1021.0 - -
23/08:40pm 14.1 10.3 9.0 71 2.6 NE 19 24 10 13 1021.0 - -
23/08:30pm 14.1 10.0 8.8 70 2.7 NE 20 24 11 13 1021.0 - -
23/08:20pm 14.2 10.8 9.1 71 2.6 ENE 17 22 9 12 1020.9 - -
23/08:10pm 14.2 11.1 8.8 70 2.7 ENE 15 20 8 11 1021.0 - -
23/08:00pm 14.1 10.6 8.9 71 2.6 ENE 17 22 9 12 1021.0 - -
23/07:50pm 14.1 10.7 9.1 72 2.5 ENE 17 24 9 13 1021.0 - -
23/07:40pm 14.0 11.0 9.1 72 2.5 ENE 15 22 8 12 1021.0 - -
23/07:30pm 14.0 10.6 9.1 72 2.5 ENE 17 22 9 12 1021.0 - -
23/07:20pm 13.9 10.5 9.2 73 2.4 ENE 17 24 9 13 1020.9 - -
23/07:10pm 13.8 10.1 9.3 74 2.3 ENE 19 22 10 12 1020.9 - -
23/07:00pm 13.7 10.0 9.6 76 2.1 ENE 19 22 10 12 1020.9 - -
23/06:50pm 13.6 10.3 9.7 77 2.0 ENE 17 20 9 11 1020.9 - -
23/06:40pm 13.5 10.2 9.7 78 2.0 E 17 20 9 11 1021.0 - -
23/06:30pm 13.4 10.5 9.7 78 1.9 E 15 19 8 10 1021.0 - -
23/06:20pm 13.5 10.6 9.8 78 1.9 ENE 15 19 8 10 1021.0 - -
23/06:10pm 13.4 10.6 10.0 80 1.8 E 15 19 8 10 1021.0 - -
23/06:00pm 13.3 10.5 10.1 81 1.7 E 15 19 8 10 1020.9 - -
23/05:50pm 13.1 10.4 10.2 82 1.5 E 15 19 8 10 1020.9 - -
23/05:40pm 13.0 10.7 10.3 84 1.4 E 13 19 7 10 1020.9 - -
23/05:30pm 12.8 10.5 10.3 85 1.3 E 13 17 7 9 1020.8 - -
23/05:20pm 12.7 10.4 10.3 85 1.2 E 13 17 7 9 1020.8 - -
23/05:10pm 12.6 10.6 10.3 86 1.2 E 11 15 6 8 1020.8 - -
23/04:50pm 12.3 11.1 10.2 87 1.1 E 7 11 4 6 1020.8 - -
23/04:40pm 12.3 11.3 10.2 87 1.1 E 6 9 3 5 1020.8 - -
23/04:30pm 12.2 11.5 10.0 86 1.1 E 4 7 2 4 1020.8 - -
23/04:20pm 12.2 11.8 9.9 86 1.2 E 2 4 1 2 1020.8 - -
23/04:10pm 12.1 12.1 9.8 86 1.2 E 0 2 0 1 1020.8 - -
23/04:00pm 12.0 11.9 9.6 85 1.2 E 0 0 0 0 1020.8 - -
23/03:50pm 12.0 11.9 9.4 84 1.3 SE 0 0 0 0 1020.8 - -
23/03:40pm 12.2 12.1 9.4 83 1.4 E 0 0 0 0 1020.8 - -
23/03:30pm 12.3 12.2 9.5 83 1.4 ENE 0 0 0 0 1020.8 - -
23/03:20pm 12.3 12.2 9.3 82 1.5 NE 0 0 0 0 1020.8 - -
23/03:10pm 12.4 12.2 9.2 81 1.6 NE 0 0 0 0 1020.8 - -
23/03:00pm 12.8 12.7 9.4 80 1.7 NE 0 0 0 0 1020.8 - -
23/02:50pm 12.9 12.8 9.5 80 1.7 ESE 0 2 0 1 1020.8 - -
23/02:40pm 13.2 13.2 9.7 79 1.8 NNE 0 0 0 0 1020.8 - -
23/02:30pm 13.1 13.1 9.7 80 1.7 NE 0 0 0 0 1020.9 - -
23/02:20pm 13.0 12.9 9.6 80 1.7 NE 0 0 0 0 1020.9 - -
23/02:10pm 12.9 12.8 9.6 80 1.7 NE 0 0 0 0 1020.9 - -
23/02:00pm 12.8 12.7 9.5 80 1.7 NE 0 0 0 0 1020.9 - -
23/01:50pm 12.8 12.7 9.6 81 1.6 SW 0 0 0 0 1020.9 - -
23/01:40pm 12.6 12.5 9.4 81 1.6 W 0 0 0 0 1021.0 - -
23/01:30pm 12.6 12.5 9.3 80 1.7 WSW 0 2 0 1 1021.0 - -
23/01:20pm 12.5 12.0 9.3 81 1.6 W 2 4 1 2 1021.1 - -
23/01:10pm 12.5 11.6 9.2 80 1.7 W 4 6 2 3 1021.3 - -
23/01:00pm 12.5 12.0 9.2 80 1.7 W 2 6 1 3 1021.3 - -
23/12:50pm 12.5 11.6 9.2 80 1.7 W 4 4 2 2 1021.3 - -
23/12:40pm 12.6 11.7 9.2 80 1.7 WNW 4 6 2 3 1021.4 - -
23/12:30pm 12.7 11.8 9.2 79 1.8 WNW 4 7 2 4 1021.6 - -
23/12:20pm 12.8 11.5 9.1 78 1.9 WNW 6 9 3 5 1021.7 - -
23/12:10pm 13.1 11.6 9.2 77 2.0 WNW 7 9 4 5 1021.8 - -
23/12:00pm 13.2 11.9 9.3 77 2.0 WNW 6 7 3 4 1022.0 - -
23/11:50am 13.2 11.9 9.2 77 2.0 WNW 6 9 3 5 1022.1 - -
23/11:40am 13.4 12.1 9.3 76 2.1 WNW 6 7 3 4 1022.2 - -
23/11:30am 13.5 12.3 9.4 76 2.1 WNW 6 9 3 5 1022.4 - -
23/11:20am 13.5 12.1 9.4 76 2.1 WNW 7 9 4 5 1022.6 - -
23/11:10am 13.7 12.5 9.4 75 2.2 WNW 6 9 3 5 1022.7 - -
23/11:00am 13.9 12.5 9.6 75 2.2 WNW 7 9 4 5 1022.8 - -
23/10:50am 13.7 12.3 9.5 76 2.1 WNW 7 11 4 6 1023.1 - -
23/10:40am 13.8 12.4 9.5 75 2.2 WNW 7 11 4 6 1023.3 - -
23/10:30am 13.9 12.1 9.6 75 2.2 WNW 9 11 5 6 1023.4 - -
23/10:10am 14.1 12.7 9.5 74 2.4 WNW 7 11 4 6 1023.8 - -
23/10:00am 14.3 13.0 9.8 74 2.3 WNW 7 11 4 6 1023.9 - -
23/09:50am 14.2 13.0 9.7 74 2.3 WNW 6 11 3 6 1024.0 - -
23/09:40am 14.3 13.1 9.7 74 2.4 WNW 6 9 3 5 1024.1 - -
23/09:30am 14.3 13.0 9.8 74 2.3 WNW 7 11 4 6 1024.2 - -
23/09:20am 14.4 12.3 9.6 73 2.5 WNW 11 15 6 8 1024.3 - -
23/09:10am 14.6 12.1 9.6 72 2.6 WNW 13 17 7 9 1024.4 - -
23/09:00am 15.0 12.8 9.2 68 3.0 WNW 11 17 6 9 1024.4 - -
23/08:50am 15.2 13.7 9.1 67 3.1 WNW 7 11 4 6 1024.4 - -
23/08:40am 15.1 13.8 9.1 67 3.1 NW 6 9 3 5 1024.4 - -
23/08:30am 14.9 13.5 8.9 67 3.1 NW 6 9 3 5 1024.4 - -
23/08:20am 14.7 14.3 8.4 66 3.2 NW 0 4 0 2 1024.4 - -
23/08:10am 14.7 14.3 8.4 66 3.2 N 0 2 0 1 1024.5 - -
23/08:00am 14.5 14.1 8.3 66 3.1 N 0 2 0 1 1024.4 - -
23/07:50am 14.1 13.6 7.9 66 3.1 NE 0 0 0 0 1024.3 - -
23/07:40am 13.8 13.3 7.8 67 3.0 NE 0 0 0 0 1024.2 - -
23/07:30am 13.7 13.2 7.9 68 2.9 NE 0 0 0 0 1024.1 - -
23/07:20am 13.0 12.4 7.6 70 2.6 NE 0 0 0 0 1024.1 - -
23/07:00am 13.0 12.5 7.9 71 2.5 SE 0 4 0 2 1024.0 - -
23/06:50am 12.8 12.3 7.9 72 2.4 SSE 0 2 0 1 1024.0 - -
23/06:40am 12.7 12.2 7.9 72 2.4 S 0 2 0 1 1024.0 - -
23/06:30am 12.6 12.1 8.0 73 2.3 SSE 0 2 0 1 1024.0 - -
23/06:20am 12.6 12.2 8.1 74 2.2 SSE 0 2 0 1 1023.9 - -
23/06:10am 12.6 12.2 8.1 74 2.2 SW 0 0 0 0 1023.9 - -
23/06:00am 12.5 12.1 8.1 74 2.2 SW 0 0 0 0 1023.8 - -
23/05:50am 12.5 12.1 8.2 75 2.1 S 0 2 0 1 1023.7 - -
23/05:40am 12.5 11.7 8.3 75 2.1 S 2 6 1 3 1023.5 - -
23/05:30am 12.4 11.6 8.3 76 2.0 SSW 2 6 1 3 1023.5 - -
23/05:20am 12.5 11.4 8.5 76 2.0 S 4 7 2 4 1023.5 - -
23/05:10am 12.5 11.0 8.5 76 2.0 SSW 6 9 3 5 1023.4 - -
23/05:00am 12.5 11.0 8.5 76 2.0 S 6 11 3 6 1023.4 - -
23/04:50am 12.5 11.0 8.5 76 2.0 S 6 11 3 6 1023.3 - -
23/04:40am 12.6 10.9 8.5 76 2.0 SSW 7 11 4 6 1023.2 - -
23/04:30am 12.7 11.0 8.5 75 2.1 SW 7 9 4 5 1023.2 - -
23/04:20am 12.7 11.0 8.4 75 2.1 SW 7 11 4 6 1023.3 - -
23/04:10am 12.8 11.1 8.5 75 2.1 SW 7 11 4 6 1023.3 - -
23/04:00am 12.8 10.8 8.5 75 2.1 SW 9 13 5 7 1023.2 - -
23/03:50am 12.8 10.8 8.5 75 2.1 SW 9 13 5 7 1023.3 - -
23/03:40am 12.8 10.7 8.4 74 2.2 SW 9 11 5 6 1023.2 - -
23/03:30am 12.8 10.8 8.5 75 2.1 SW 9 13 5 7 1023.2 - -
23/03:20am 12.9 10.9 8.5 74 2.2 SW 9 11 5 6 1023.2 - -
23/03:10am 12.8 11.1 8.5 75 2.1 SW 7 11 4 6 1023.3 - -
23/03:00am 12.7 11.1 8.6 76 2.0 SW 7 9 4 5 1023.2 - -
23/02:50am 12.6 11.0 8.6 76 2.0 SW 7 9 4 5 1023.2 - -
23/02:40am 12.7 11.1 8.8 77 2.0 SW 7 11 4 6 1023.2 - -
23/02:30am 12.6 11.0 8.7 77 1.9 SW 7 11 4 6 1023.3 - -
23/02:20am 12.7 11.1 8.8 77 2.0 WSW 7 9 4 5 1023.3 - -
23/02:00am 12.8 11.2 8.9 77 2.0 WSW 7 11 4 6 1023.6 - -
23/01:50am 12.8 10.9 9.0 78 1.9 WSW 9 11 5 6 1023.7 - -
23/01:40am 13.0 11.1 9.0 77 2.0 WSW 9 15 5 8 1023.8 - -
23/01:30am 13.1 11.2 9.0 76 2.1 W 9 11 5 6 1023.8 - -
23/01:20am 13.1 10.8 8.9 75 2.1 W 11 13 6 7 1023.8 - -
23/01:10am 13.1 11.0 8.4 73 2.3 W 9 13 5 7 1023.9 - -
23/01:00am 12.8 11.2 8.0 72 2.4 W 6 9 3 5 1023.8 - -
23/12:50am 12.8 11.6 8.0 72 2.4 WNW 4 6 2 3 1023.9 - -
23/12:40am 12.8 11.6 8.0 72 2.4 WNW 4 6 2 3 1023.9 - -
23/12:30am 12.7 11.8 7.8 72 2.4 W 2 6 1 3 1023.9 - -
23/12:10am 12.5 12.0 7.8 73 2.3 WSW 0 2 0 1 1024.0 - -
23/12:00am 12.5 12.0 7.8 73 2.3 WSW 0 2 0 1 1024.0 - -
 
Date/Time
EST
Temp
°C
App
Temp
°C
Dew
Point
Rel
Hum
%
Delta-T
°C
Wind Press
QNH
hPa
Press
MSL
hPa
Rain
since 9 am
mm
Dir
 
Spd
km/h
Gust
km/h
Spd
kts
Gust
kts
22/11:50pm 12.5 12.0 7.8 73 2.3 WSW 0 2 0 1 1024.0 - -
22/11:40pm 12.6 12.1 7.9 73 2.3 WSW 0 2 0 1 1023.9 - -
22/11:30pm 12.8 11.9 7.9 72 2.4 WSW 2 2 1 1 1024.0 - -
22/11:20pm 13.0 12.5 7.9 71 2.5 SW 0 2 0 1 1024.0 - -
22/11:10pm 13.1 12.2 7.9 70 2.6 SW 2 6 1 3 1024.0 - -
22/11:00pm 13.4 12.1 7.8 69 2.8 SW 4 6 2 3 1024.1 - -
22/10:50pm 14.5 13.3 8.2 66 3.2 SW 4 6 2 3 1024.1 - -
22/10:40pm 14.0 13.4 9.0 72 2.5 SSW 2 4 1 2 1024.3 - -
22/10:30pm 12.7 12.2 7.8 72 2.4 SSW 0 2 0 1 1024.4 - -
22/10:20pm 12.7 11.8 7.7 71 2.4 SSW 2 2 1 1 1024.4 - -
22/10:10pm 12.8 11.9 7.6 70 2.5 S 2 4 1 2 1024.5 - -
22/10:00pm 12.9 12.1 8.0 72 2.4 S 2 6 1 3 1024.4 - -
22/09:50pm 12.8 11.9 7.9 72 2.4 S 2 7 1 4 1024.4 - -
22/09:40pm 12.8 11.9 7.9 72 2.4 S 2 6 1 3 1024.4 - -
22/09:30pm 12.8 11.5 7.8 71 2.5 S 4 6 2 3 1024.5 - -
22/09:20pm 12.8 11.5 7.8 71 2.5 S 4 6 2 3 1024.5 - -
22/09:10pm 12.8 11.5 7.5 70 2.6 S 4 7 2 4 1024.6 - -
22/09:00pm 12.8 11.5 7.5 70 2.6 S 4 6 2 3 1024.6 - -
22/08:50pm 12.9 11.2 7.7 70 2.5 S 6 7 3 4 1024.6 - -
22/08:40pm 12.7 11.3 7.4 70 2.6 S 4 7 2 4 1024.6 - -
22/08:30pm 12.8 11.5 7.7 71 2.5 S 4 7 2 4 1024.5 - -
22/08:20pm 12.8 11.1 7.6 70 2.5 S 6 9 3 5 1024.5 - -
22/08:10pm 12.8 10.9 7.4 69 2.6 S 7 11 4 6 1024.6 - -
22/08:00pm 12.8 10.9 7.6 70 2.5 S 7 11 4 6 1024.6 - -
22/07:40pm 12.8 10.8 7.3 69 2.7 SSW 7 9 4 5 1024.6 - -
22/07:30pm 12.8 10.5 7.5 70 2.6 S 9 13 5 7 1024.6 - -
22/07:20pm 12.9 10.7 7.7 70 2.5 SSW 9 13 5 7 1024.6 - -
22/07:10pm 12.8 10.9 7.7 71 2.5 SSW 7 11 4 6 1024.6 - -
22/07:00pm 12.8 11.0 8.0 72 2.4 SSW 7 13 4 7 1024.6 - -
22/06:50pm 12.8 10.6 8.0 72 2.4 SSW 9 13 5 7 1024.6 - -
22/06:40pm 12.8 10.7 8.1 73 2.3 S 9 13 5 7 1024.6 - -
22/06:30pm 12.8 10.6 8.0 72 2.4 S 9 13 5 7 1024.6 - -
22/06:20pm 12.7 10.5 8.0 73 2.3 S 9 15 5 8 1024.6 - -
22/06:10pm 12.8 10.7 8.1 73 2.3 S 9 15 5 8 1024.6 - -
22/06:00pm 12.7 10.6 8.1 73 2.3 S 9 15 5 8 1024.6 - -
22/05:50pm 12.7 10.2 8.1 73 2.3 S 11 15 6 8 1024.6 - -
22/05:40pm 12.7 10.2 8.3 74 2.2 S 11 17 6 9 1024.6 - -
22/05:30pm 12.6 9.7 8.3 75 2.1 SSW 13 15 7 8 1024.4 - -
22/05:20pm 12.6 9.8 8.4 75 2.1 SSW 13 19 7 10 1024.5 - -
22/05:10pm 12.6 9.8 8.5 76 2.0 SSW 13 17 7 9 1024.6 - -
22/05:00pm 12.7 9.9 8.5 75 2.1 SSW 13 17 7 9 1024.5 - -
22/04:50pm 12.7 9.5 8.4 75 2.1 SSW 15 19 8 10 1024.5 - -
22/04:40pm 12.8 9.6 8.4 74 2.2 SSW 15 19 8 10 1024.4 - -
22/04:30pm 12.7 9.1 8.3 74 2.2 SSW 17 20 9 11 1024.4 - -
22/04:20pm 12.7 9.1 8.3 74 2.2 SSW 17 19 9 10 1024.3 - -
22/04:10pm 12.7 9.1 8.2 74 2.2 SSW 17 19 9 10 1024.2 - -
22/04:00pm 12.8 9.2 8.3 74 2.2 SSW 17 20 9 11 1024.3 - -
22/03:50pm 12.9 8.9 8.3 73 2.3 SSW 19 20 10 11 1024.3 - -
22/03:40pm 12.9 8.9 8.3 73 2.3 SSW 19 22 10 12 1024.2 - -
22/03:30pm 12.9 9.0 8.6 75 2.1 SSW 19 22 10 12 1024.3 - -
22/03:20pm 13.1 9.2 8.7 74 2.2 SSW 19 22 10 12 1024.3 - -
22/03:10pm 13.0 9.1 8.6 74 2.2 SSW 19 22 10 12 1024.3 - -
22/03:00pm 13.0 9.1 8.7 75 2.2 SSW 19 22 10 12 1024.2 - -
22/02:50pm 13.1 9.0 8.8 75 2.2 SSW 20 22 11 12 1024.1 - -
22/02:40pm 13.0 9.1 8.8 75 2.1 SSW 19 22 10 12 1024.1 - -
22/02:30pm 13.0 8.9 8.8 75 2.1 SSW 20 24 11 13 1024.1 - -
22/02:20pm 13.1 9.1 8.9 75 2.1 SSW 20 24 11 13 1024.1 - -
22/02:10pm 13.5 9.5 8.9 74 2.3 SSW 20 24 11 13 1024.0 - -
22/02:00pm 13.8 9.9 9.4 75 2.2 SSW 20 24 11 13 1023.9 - -
22/01:50pm 13.6 9.3 9.3 75 2.2 SW 22 28 12 15 1023.8 - -
22/01:40pm 13.6 9.7 9.3 75 2.2 SW 20 24 11 13 1023.7 - -
22/01:30pm 13.6 9.3 9.3 75 2.2 SSW 22 26 12 14 1023.7 - -
22/01:10pm 13.4 9.7 9.3 76 2.1 SSW 19 22 10 12 1023.9 - -
22/01:00pm 13.0 9.5 8.8 75 2.1 SSW 17 22 9 12 1023.9 - -
22/12:50pm 12.8 9.7 8.8 76 2.0 SSW 15 19 8 10 1023.8 - -
22/12:40pm 12.9 10.2 8.9 76 2.0 SSW 13 17 7 9 1023.8 - -
22/12:30pm 12.8 9.8 9.1 78 1.9 SSW 15 19 8 10 1023.8 - -
22/12:20pm 12.3 8.9 9.0 80 1.7 SSW 17 20 9 11 1023.9 - -
22/12:10pm 12.2 8.2 9.0 81 1.6 S 20 24 11 13 1023.9 - -
22/12:00pm 12.8 9.0 9.0 78 1.9 S 19 24 10 13 1024.0 - -
22/11:50am 12.5 8.9 8.5 76 2.0 S 17 20 9 11 1024.2 - -
22/11:40am 12.3 8.3 8.9 80 1.7 S 20 24 11 13 1024.5 - -
22/11:30am 12.3 8.3 9.0 80 1.7 S 20 24 11 13 1024.6 - -
22/11:20am 12.5 8.1 9.1 80 1.7 S 22 28 12 15 1024.7 - -
22/11:10am 12.8 8.8 9.0 78 1.9 S 20 26 11 14 1024.9 - -
22/11:00am 12.9 9.0 8.7 75 2.1 S 19 24 10 13 1024.9 - -
22/10:50am 13.0 9.1 8.5 74 2.2 SSW 19 22 10 12 1025.0 - -
22/10:40am 12.8 8.9 8.5 75 2.1 S 19 22 10 12 1025.1 - -
22/10:30am 12.6 8.4 8.3 75 2.1 S 20 24 11 13 1025.3 - -
22/10:20am 13.0 8.5 8.4 73 2.3 S 22 28 12 15 1025.4 - -
22/10:10am 14.0 9.4 6.3 60 3.7 SSW 20 26 11 14 1025.5 - -
22/10:00am 14.1 9.4 5.9 57 3.9 SSW 20 28 11 15 1025.6 - -
22/09:50am 13.9 9.2 6.2 59 3.7 SSW 20 24 11 13 1025.6 - -
22/09:40am 13.9 9.1 5.8 58 3.8 SSW 20 26 11 14 1025.7 - -
22/09:30am 14.1 9.3 5.8 57 3.9 SSW 20 24 11 13 1025.7 - -
22/09:20am 14.3 9.6 5.9 57 4.0 SSW 20 24 11 13 1025.7 - -
22/09:10am 14.3 9.5 5.5 55 4.2 SSW 20 26 11 14 1025.7 - -
22/09:00am 14.0 9.1 5.2 55 4.1 SSW 20 26 11 14 1025.7 - -
22/08:50am 14.1 9.2 5.2 55 4.2 SSW 20 24 11 13 1025.7 - -
22/08:40am 13.7 8.9 4.9 55 4.1 SSW 19 22 10 12 1025.7 - -
22/08:30am 13.7 9.1 5.7 58 3.8 S 19 22 10 12 1025.7 - -
22/08:20am 13.7 9.1 5.7 58 3.8 SSW 19 24 10 13 1025.7 - -
22/08:10am 13.8 9.0 5.8 58 3.8 SSW 20 26 11 14 1025.7 - -
22/08:00am 13.7 9.0 5.0 55 4.1 SSW 19 24 10 13 1025.6 - -
22/07:50am 13.7 8.8 5.0 55 4.1 SSW 20 26 11 14 1025.5 - -
22/07:40am 13.6 8.7 5.3 57 3.9 SSW 20 24 11 13 1025.5 - -
22/07:30am 13.5 8.8 5.1 57 3.9 SSW 19 24 10 13 1025.3 - -
22/07:20am 13.4 8.4 4.5 55 4.1 S 20 26 11 14 1025.3 - -
22/07:10am 13.3 8.5 4.8 56 3.9 S 19 24 10 13 1025.3 - -
22/07:00am 13.2 8.2 4.8 56 3.9 S 20 24 11 13 1025.2 - -
22/06:50am 13.1 8.1 4.5 56 3.9 S 20 26 11 14 1025.0 - -
22/06:40am 13.1 8.9 5.5 60 3.6 S 17 22 9 12 1024.9 - -
22/06:30am 13.1 8.9 5.8 61 3.4 S 17 20 9 11 1024.8 - -
22/06:20am 13.1 8.5 5.8 61 3.4 S 19 22 10 12 1024.7 - -
22/06:10am 13.1 8.3 5.7 61 3.5 S 20 24 11 13 1024.6 - -
22/05:50am 13.1 8.6 6.0 62 3.4 S 19 20 10 11 1024.4 - -
22/05:40am 13.1 8.9 5.8 61 3.4 S 17 24 9 13 1024.4 - -
22/05:30am 13.2 9.0 5.8 61 3.5 S 17 24 9 13 1024.4 - -
22/05:20am 13.1 8.8 5.3 59 3.6 S 17 20 9 11 1024.2 - -
22/05:10am 13.2 8.6 5.4 59 3.6 S 19 26 10 14 1024.1 - -
22/05:00am 13.2 9.0 5.8 61 3.5 S 17 22 9 12 1024.0 - -
22/04:50am 13.2 9.0 5.6 60 3.6 S 17 22 9 12 1023.9 - -
22/04:40am 13.2 8.5 5.2 58 3.7 S 19 24 10 13 1023.9 - -
22/04:30am 13.3 8.6 5.2 58 3.8 S 19 22 10 12 1023.9 - -
22/04:20am 13.3 8.5 4.9 57 3.9 S 19 24 10 13 1023.9 - -
22/04:10am 13.3 8.9 4.8 56 3.9 S 17 24 9 13 1023.9 - -
22/04:00am 13.3 8.5 4.6 55 4.0 S 19 22 10 12 1023.9 - -
22/03:50am 13.3 8.8 4.3 54 4.1 S 17 20 9 11 1023.9 - -
22/03:40am 13.2 9.2 4.9 57 3.8 S 15 19 8 10 1023.8 - -
22/03:30am 13.2 9.3 5.4 59 3.6 S 15 22 8 12 1023.7 - -
22/03:20am 13.2 9.4 5.6 60 3.6 S 15 22 8 12 1023.7 - -
22/03:10am 13.1 9.7 5.7 61 3.5 SSE 13 19 7 10 1023.7 - -
22/03:00am 13.0 8.9 6.4 64 3.1 S 17 20 9 11 1023.8 - -
22/02:50am 13.2 9.6 6.8 65 3.1 SSE 15 22 8 12 1023.7 - -
22/02:30am 13.2 11.1 6.7 64 3.1 SSE 7 11 4 6 1023.7 - -
22/02:20am 13.2 10.7 6.7 64 3.1 SSE 9 13 5 7 1023.8 - -
22/02:10am 13.2 10.8 6.9 65 3.0 SSE 9 15 5 8 1023.8 - -
22/02:00am 13.2 10.7 6.7 64 3.1 SSE 9 17 5 9 1023.9 - -
22/01:50am 13.2 10.6 6.3 63 3.3 SSE 9 15 5 8 1023.9 - -
22/01:40am 13.2 10.6 6.1 62 3.4 SE 9 13 5 7 1023.9 - -
22/01:30am 13.2 11.2 6.3 63 3.3 SSE 6 13 3 7 1024.0 - -
22/01:20am 13.1 10.5 6.3 63 3.2 SE 9 15 5 8 1024.0 - -
22/01:10am 13.1 10.6 6.4 64 3.2 SE 9 15 5 8 1023.9 - -
22/01:00am 13.1 10.6 6.5 64 3.2 SE 9 15 5 8 1024.0 - -
22/12:50am 13.1 10.6 6.4 64 3.2 SE 9 15 5 8 1024.0 - -
22/12:40am 13.0 10.8 6.3 64 3.2 SE 7 13 4 7 1024.0 - -
22/12:30am 13.0 10.8 6.4 64 3.1 SSE 7 9 4 5 1024.1 - -
22/12:20am 13.0 10.9 6.6 65 3.1 SSE 7 11 4 6 1024.1 - -
22/12:10am 13.0 10.6 6.9 66 2.9 SSE 9 17 5 9 1024.1 - -
22/12:00am 13.0 10.6 6.9 66 2.9 SE 9 15 5 8 1024.2 - -
 
Date/Time
EST
Temp
°C
App
Temp
°C
Dew
Point
Rel
Hum
%
Delta-T
°C
Wind Press
QNH
hPa
Press
MSL
hPa
Rain
since 9 am
mm
Dir
 
Spd
km/h
Gust
km/h
Spd
kts
Gust
kts
21/11:50pm 13.1 9.9 6.8 65 3.0 SE 13 17 7 9 1024.2 - -
21/11:40pm 13.2 10.6 6.3 63 3.3 SSE 9 19 5 10 1024.2 - -
21/11:30pm 13.2 10.5 5.8 61 3.5 SE 9 15 5 8 1024.3 - -
21/11:20pm 13.1 10.5 6.1 62 3.3 SE 9 15 5 8 1024.4 - -
21/11:10pm 13.1 10.2 6.3 63 3.2 SSE 11 17 6 9 1024.5 - -
21/11:00pm 13.1 10.2 6.6 64 3.1 SE 11 17 6 9 1024.5 - -
21/10:50pm 13.2 9.8 5.8 61 3.5 SSE 13 19 7 10 1024.6 - -
21/10:40pm 13.2 9.3 5.5 59 3.6 SE 15 20 8 11 1024.6 - -
21/10:30pm 13.2 9.7 5.3 58 3.7 SE 13 22 7 12 1024.6 - -
21/10:20pm 13.2 10.4 5.2 58 3.7 SE 9 17 5 9 1024.6 - -
21/10:10pm 13.2 10.0 5.3 58 3.7 SE 11 15 6 8 1024.6 - -
21/10:00pm 13.2 10.4 5.3 58 3.7 SE 9 15 5 8 1024.7 - -
21/09:50pm 13.1 10.4 5.6 60 3.5 ESE 9 15 5 8 1024.7 - -
21/09:40pm 13.1 10.4 5.7 61 3.5 ESE 9 13 5 7 1024.7 - -
21/09:30pm 13.1 10.5 6.0 62 3.4 ESE 9 15 5 8 1024.7 - -
21/09:20pm 13.0 10.8 6.0 62 3.3 ESE 7 11 4 6 1024.7 - -
21/09:10pm 13.0 10.7 5.9 62 3.4 ESE 7 11 4 6 1024.8 - -
21/09:00pm 13.0 10.4 6.3 64 3.2 ESE 9 13 5 7 1024.8 - -
21/08:50pm 13.0 10.4 6.0 62 3.3 ESE 9 13 5 7 1024.9 - -
21/08:40pm 13.1 10.5 6.3 63 3.2 ESE 9 15 5 8 1024.9 - -
21/08:30pm 13.0 10.4 6.1 63 3.3 SE 9 15 5 8 1025.0 - -
21/08:20pm 13.0 9.7 6.4 64 3.1 SE 13 20 7 11 1024.9 - -
21/08:10pm 13.0 9.3 6.3 64 3.2 SE 15 22 8 12 1024.9 - -
21/08:00pm 12.9 9.0 7.1 68 2.8 SE 17 24 9 13 1024.9 - -
21/07:50pm 12.9 8.4 6.9 67 2.9 SE 20 28 11 15 1024.9 - -
21/07:40pm 12.9 8.5 7.2 68 2.8 SE 20 24 11 13 1024.9 - -
21/07:30pm 13.3 9.9 6.1 61 3.4 SE 13 22 7 12 1025.0 - -
21/07:20pm 13.3 10.4 4.9 57 3.9 SSE 9 15 5 8 1025.0 - -
21/07:10pm 13.3 10.8 4.9 57 3.9 SE 7 13 4 7 1025.0 - -
21/07:00pm 13.3 10.8 4.8 56 3.9 SSE 7 11 4 6 1025.1 - -
21/06:50pm 13.3 11.4 4.7 56 4.0 SSE 4 7 2 4 1025.0 - -
21/06:40pm 13.3 11.0 4.6 55 4.0 SSE 6 11 3 6 1025.0 - -
21/06:30pm 13.3 11.1 5.1 57 3.8 SE 6 11 3 6 1025.0 - -
21/06:20pm 13.3 11.0 4.9 57 3.9 SE 6 9 3 5 1025.1 - -
21/06:10pm 13.3 10.4 4.8 56 3.9 SE 9 15 5 8 1025.0 - -
21/06:00pm 13.3 10.1 5.3 58 3.7 SSE 11 19 6 10 1025.0 - -
21/05:50pm 13.3 10.4 4.9 57 3.9 SSE 9 15 5 8 1024.9 - -
21/05:40pm 13.2 10.3 4.9 57 3.8 SE 9 17 5 9 1024.8 - -
21/05:30pm 13.3 10.5 5.0 57 3.9 SSE 9 15 5 8 1024.8 - -
21/05:20pm 13.3 10.8 4.7 56 4.0 SSE 7 15 4 8 1024.8 - -
21/05:10pm 13.3 10.3 4.1 53 4.2 SE 9 13 5 7 1024.7 - -
21/05:00pm 13.3 10.3 4.3 54 4.1 SSE 9 13 5 7 1024.6 - -
21/04:50pm 13.2 10.2 4.0 53 4.2 SSE 9 13 5 7 1024.6 - -
21/04:40pm 13.2 10.2 4.2 54 4.1 SE 9 13 5 7 1024.5 - -
21/04:30pm 13.2 9.9 4.3 55 4.1 SE 11 15 6 8 1024.5 - -
21/04:20pm 13.2 9.9 4.5 55 4.0 SSE 11 17 6 9 1024.5 - -
21/04:10pm 13.2 9.9 4.4 55 4.0 SSE 11 19 6 10 1024.4 - -
21/04:00pm 13.2 9.5 4.4 55 4.0 SE 13 20 7 11 1024.4 - -
21/03:50pm 13.3 9.6 4.5 55 4.0 SE 13 20 7 11 1024.4 - -
21/03:40pm 13.3 9.6 4.5 55 4.0 SE 13 19 7 10 1024.3 - -
21/03:20pm 13.4 10.4 4.1 53 4.2 SE 9 17 5 9 1024.2 - -
21/03:10pm 13.4 10.4 4.0 53 4.3 SE 9 15 5 8 1024.2 - -
21/03:00pm 13.5 11.1 4.2 53 4.2 SE 6 13 3 7 1024.2 - -
21/02:50pm 13.5 11.0 3.8 52 4.4 SE 6 9 3 5 1024.1 - -
21/02:40pm 13.5 11.8 3.9 52 4.4 SE 2 7 1 4 1024.1 - -
21/02:30pm 13.4 11.3 3.8 52 4.3 SE 4 9 2 5 1024.0 - -
21/02:20pm 13.4 10.9 3.9 52 4.3 ESE 6 9 3 5 1024.0 - -
21/02:10pm 13.5 11.8 4.0 52 4.3 SE 2 7 1 4 1024.0 - -

Other Formats:

Comma delimited format used in spreadsheet applications
http://www.bom.gov.au/fwo/IDV60801/IDV60801.55039.axf

JavaScript Object Notation format (JSON) in row-major order
http://www.bom.gov.au/fwo/IDV60801/IDV60801.55039.json